Time;durP1;ratioP1;P1;durP2;ratioP2;P2;SDS_P1;SDS_P2;PMS_P1;PMS_P2;Temp;Humidity;BMP_temperature;BMP_pressure;BME280_temperature;BME280_humidity;BME280_pressure;Samples;Min_cycle;Max_cycle;Signal;HPM_P1;HPM_P2
2021/01/12 00:01:51;;;;;;;18.90;14.57;;;5.70;99.90;;;;;;5013858;28;20642;-69
2021/01/12 00:04:39;;;;;;;17.07;13.93;;;5.70;99.90;;;;;;5023782;28;20715;-70
2021/01/12 00:07:24;;;;;;;17.93;13.80;;;5.70;99.90;;;;;;5015524;28;21477;-70
2021/01/12 00:10:09;;;;;;;19.03;14.97;;;5.80;99.90;;;;;;5013443;28;20740;-69
2021/01/12 00:12:56;;;;;;;20.33;14.43;;;5.80;99.90;;;;;;5011085;28;20589;-70
2021/01/12 00:15:41;;;;;;;18.87;15.57;;;5.80;99.90;;;;;;5019229;28;21023;-69
2021/01/12 00:18:27;;;;;;;19.67;14.67;;;5.90;99.90;;;;;;5021846;28;20715;-70
2021/01/12 00:21:12;;;;;;;19.50;14.03;;;5.90;99.90;;;;;;5021188;28;20642;-70
2021/01/12 00:23:57;;;;;;;18.47;14.67;;;5.90;99.90;;;;;;5025637;28;20761;-70
2021/01/12 00:26:41;;;;;;;18.97;15.53;;;5.90;99.90;;;;;;5011953;28;20662;-70
2021/01/12 00:29:28;;;;;;;18.73;14.90;;;6.00;99.90;;;;;;5023324;28;20642;-69
2021/01/12 00:32:19;;;;;;;19.90;15.90;;;5.90;99.90;;;;;;5031100;28;21178;-69
2021/01/12 00:35:05;;;;;;;20.60;15.30;;;5.90;99.90;;;;;;5020225;28;21869;-70
2021/01/12 00:37:49;;;;;;;18.93;15.23;;;5.90;99.90;;;;;;5020644;28;20933;-70
2021/01/12 00:40:34;;;;;;;19.33;15.83;;;6.00;99.90;;;;;;4989634;28;21368;-70
2021/01/12 00:43:19;;;;;;;20.17;16.00;;;6.00;99.90;;;;;;4996892;28;20751;-70
2021/01/12 00:46:07;;;;;;;19.40;14.90;;;6.10;99.90;;;;;;4994324;28;20610;-70
2021/01/12 00:48:51;;;;;;;21.30;15.80;;;6.10;99.90;;;;;;4965765;28;20765;-70
2021/01/12 00:51:37;;;;;;;24.73;17.30;;;6.20;99.90;;;;;;5011642;23;20766;-67
2021/01/12 00:54:23;;;;;;;18.60;15.00;;;6.10;99.90;;;;;;4982757;28;20965;-68
2021/01/12 00:57:08;;;;;;;21.37;16.40;;;6.20;99.90;;;;;;4983249;28;20603;-67
2021/01/12 00:59:52;;;;;;;19.13;15.97;;;6.20;99.90;;;;;;4996906;28;20732;-67
2021/01/12 01:02:39;;;;;;;20.03;15.73;;;6.20;99.90;;;;;;4957495;28;20648;-68
2021/01/12 01:05:24;;;;;;;19.67;15.63;;;6.30;99.90;;;;;;4985447;28;20604;-66
2021/01/12 01:08:08;;;;;;;18.90;14.50;;;6.30;99.90;;;;;;4989463;28;21109;-67
2021/01/12 01:10:53;;;;;;;18.47;15.80;;;6.30;99.90;;;;;;4992440;28;20643;-68
2021/01/12 01:13:37;;;;;;;19.50;15.37;;;6.40;99.90;;;;;;4989420;28;20616;-67
2021/01/12 01:16:30;;;;;;;18.63;15.13;;;6.40;99.90;;;;;;4989954;28;20608;-66
2021/01/12 01:19:15;;;;;;;16.97;14.67;;;6.40;99.90;;;;;;4980612;28;20735;-65
2021/01/12 01:22:00;;;;;;;18.00;13.90;;;6.50;99.90;;;;;;4990499;28;20664;-67
2021/01/12 01:24:44;;;;;;;17.10;14.20;;;6.50;99.90;;;;;;5000597;28;20588;-66
2021/01/12 01:27:33;;;;;;;15.30;12.67;;;6.50;99.90;;;;;;4991847;28;20647;-66
2021/01/12 01:30:18;;;;;;;15.30;13.30;;;6.60;99.90;;;;;;4981428;28;20644;-68
2021/01/12 01:33:06;;;;;;;17.70;13.33;;;6.60;99.90;;;;;;4947701;28;20700;-67
2021/01/12 01:35:51;;;;;;;14.10;12.50;;;6.60;99.90;;;;;;4985745;28;20615;-67
2021/01/12 01:38:39;;;;;;;14.27;11.43;;;6.60;99.90;;;;;;4995694;28;20678;-68
2021/01/12 01:41:24;;;;;;;13.73;11.40;;;6.60;99.90;;;;;;4958611;28;20784;-68
2021/01/12 01:44:09;;;;;;;14.10;12.33;;;6.60;99.90;;;;;;5000193;28;20591;-67
2021/01/12 01:46:57;;;;;;;13.73;11.40;;;6.70;99.90;;;;;;4998078;28;20591;-67
2021/01/12 01:49:44;;;;;;;15.20;12.47;;;6.70;99.90;;;;;;4991001;28;20814;-67
2021/01/12 01:52:31;;;;;;;13.20;11.33;;;6.70;99.90;;;;;;5001000;28;20583;-66
2021/01/12 01:55:16;;;;;;;13.70;11.60;;;6.70;99.90;;;;;;4908600;28;20579;-66
2021/01/12 01:58:01;;;;;;;14.53;11.70;;;6.80;99.90;;;;;;4990429;28;20588;-66
2021/01/12 02:00:47;;;;;;;13.23;11.30;;;6.80;99.90;;;;;;4993897;28;21152;-68
2021/01/12 02:03:53;;;;;;;12.67;11.10;;;6.80;99.90;;;;;;4989206;28;21181;-67
2021/01/12 02:06:39;;;;;;;13.97;11.30;;;6.80;99.90;;;;;;4996963;28;20616;-68
2021/01/12 02:09:28;;;;;;;13.70;11.47;;;6.80;99.90;;;;;;4986979;28;21307;-67
2021/01/12 02:12:37;;;;;;;13.33;11.40;;;6.80;99.90;;;;;;4989269;28;20801;-67
2021/01/12 02:15:23;;;;;;;12.43;10.97;;;6.90;99.90;;;;;;4995868;28;20631;-67
2021/01/12 02:18:10;;;;;;;13.10;10.93;;;6.90;99.90;;;;;;5001257;28;21220;-67
2021/01/12 02:20:55;;;;;;;12.40;10.30;;;6.90;99.90;;;;;;4995456;28;21309;-67
2021/01/12 02:23:54;;;;;;;10.90;9.63;;;6.80;99.90;;;;;;4984571;28;20623;-68
2021/01/12 02:26:39;;;;;;;12.73;10.87;;;6.80;99.90;;;;;;4986046;28;20579;-68
2021/01/12 02:29:24;;;;;;;11.93;8.80;;;6.90;99.90;;;;;;4989591;28;20655;-67
2021/01/12 02:32:09;;;;;;;10.70;9.60;;;6.80;99.90;;;;;;4995915;28;20631;-67
2021/01/12 02:34:56;;;;;;;10.57;8.30;;;6.90;99.90;;;;;;4991819;28;20740;-66
2021/01/12 02:37:44;;;;;;;9.80;8.47;;;6.90;99.90;;;;;;4995841;28;20684;-68
2021/01/12 02:40:29;;;;;;;10.43;9.00;;;6.90;99.90;;;;;;4986039;28;21044;-68
2021/01/12 02:43:14;;;;;;;11.40;10.20;;;6.90;99.90;;;;;;5001172;28;20750;-67
2021/01/12 02:45:58;;;;;;;10.80;9.70;;;7.00;99.90;;;;;;4992509;28;21168;-69
2021/01/12 02:48:45;;;;;;;11.00;9.60;;;7.00;99.90;;;;;;4986912;28;20622;-68
2021/01/12 02:51:35;;;;;;;12.80;10.33;;;7.10;99.90;;;;;;4941759;28;21161;-67
2021/01/12 02:54:19;;;;;;;10.90;9.40;;;7.00;99.90;;;;;;4977068;28;21162;-67
2021/01/12 02:57:04;;;;;;;10.37;9.23;;;6.90;99.90;;;;;;4996740;28;21066;-67
2021/01/12 02:59:48;;;;;;;11.20;10.07;;;7.00;99.90;;;;;;4984895;28;20990;-67
2021/01/12 03:02:34;;;;;;;12.63;10.13;;;7.10;99.90;;;;;;4988501;28;20603;-67
2021/01/12 03:05:18;;;;;;;12.57;10.90;;;7.10;99.90;;;;;;4991765;28;20687;-66
2021/01/12 03:08:03;;;;;;;12.03;10.30;;;7.00;99.90;;;;;;4983644;28;20631;-67
2021/01/12 03:10:48;;;;;;;11.10;10.00;;;7.10;99.90;;;;;;5009400;28;20671;-68
2021/01/12 03:13:33;;;;;;;11.33;9.93;;;7.00;99.90;;;;;;4985208;28;20664;-67
2021/01/12 03:16:17;;;;;;;10.97;9.80;;;7.10;99.90;;;;;;4996682;28;20865;-68
2021/01/12 03:19:03;;;;;;;10.53;9.03;;;7.10;99.90;;;;;;4988440;28;20984;-68
2021/01/12 03:21:51;;;;;;;10.77;9.23;;;7.10;99.90;;;;;;4987933;28;20666;-68
2021/01/12 03:24:36;;;;;;;10.50;9.40;;;7.10;99.90;;;;;;4948667;28;20649;-68
2021/01/12 03:27:20;;;;;;;9.03;8.13;;;7.10;99.90;;;;;;4974777;28;20605;-66
2021/01/12 03:30:06;;;;;;;10.07;8.97;;;7.20;99.90;;;;;;4984726;28;20667;-67
2021/01/12 03:32:52;;;;;;;10.50;9.00;;;7.10;99.90;;;;;;4974183;28;20653;-66
2021/01/12 03:35:39;;;;;;;10.90;9.60;;;7.10;99.90;;;;;;5002076;28;20814;-66
2021/01/12 03:38:24;;;;;;;10.80;9.40;;;7.10;99.90;;;;;;4961008;28;21231;-68
2021/01/12 03:41:08;;;;;;;11.00;8.90;;;7.10;99.90;;;;;;4985898;28;20772;-69
2021/01/12 03:43:53;;;;;;;9.53;8.53;;;7.10;99.90;;;;;;4988836;28;20595;-67
2021/01/12 03:46:41;;;;;;;10.27;9.17;;;7.00;99.90;;;;;;4985888;28;20595;-67
2021/01/12 03:49:26;;;;;;;9.70;8.70;;;7.10;99.90;;;;;;4993016;28;20643;-68
2021/01/12 03:52:10;;;;;;;10.30;9.17;;;7.20;99.90;;;;;;4982613;28;20651;-68
2021/01/12 03:54:58;;;;;;;9.47;8.50;;;7.30;99.90;;;;;;4994349;28;20584;-68
2021/01/12 03:57:43;;;;;;;9.17;8.23;;;7.20;99.90;;;;;;4983638;28;20639;-68
2021/01/12 04:00:27;;;;;;;10.93;9.83;;;7.20;99.90;;;;;;4948550;28;20655;-68
2021/01/12 04:03:12;;;;;;;10.90;9.03;;;7.20;99.90;;;;;;4988230;28;20595;-66
2021/01/12 04:06:00;;;;;;;9.00;8.10;;;7.20;99.90;;;;;;4992397;28;20592;-67
2021/01/12 04:08:48;;;;;;;7.83;7.03;;;7.30;99.90;;;;;;4993863;28;20653;-68
2021/01/12 04:11:36;;;;;;;8.80;7.70;;;7.30;99.90;;;;;;4990057;28;20679;-67
2021/01/12 04:14:20;;;;;;;8.37;7.57;;;7.30;99.90;;;;;;4989030;28;20599;-67
2021/01/12 04:17:05;;;;;;;7.93;7.17;;;7.30;99.90;;;;;;4992902;28;20761;-68
2021/01/12 04:19:49;;;;;;;7.93;7.17;;;7.30;99.90;;;;;;4997206;28;21961;-67
2021/01/12 04:22:35;;;;;;;7.93;7.13;;;7.30;99.90;;;;;;4990132;28;20584;-68
2021/01/12 04:25:20;;;;;;;7.30;6.37;;;7.30;99.90;;;;;;4985119;28;20628;-68
2021/01/12 04:28:05;;;;;;;6.50;5.90;;;7.30;99.90;;;;;;4982197;28;20663;-67
2021/01/12 04:30:53;;;;;;;6.30;5.70;;;7.40;99.90;;;;;;5001401;28;20648;-68
2021/01/12 04:33:40;;;;;;;6.70;5.87;;;7.50;99.90;;;;;;4990594;28;20632;-67
2021/01/12 04:36:35;;;;;;;7.13;6.00;;;7.50;99.90;;;;;;4993511;28;20600;-67
2021/01/12 04:39:19;;;;;;;8.43;7.23;;;7.20;99.90;;;;;;4981509;28;20580;-68
2021/01/12 04:42:04;;;;;;;6.90;5.93;;;7.30;99.90;;;;;;4995727;28;21007;-68
2021/01/12 04:44:49;;;;;;;6.27;5.57;;;7.30;99.90;;;;;;4992718;28;21010;-67
2021/01/12 04:47:34;;;;;;;5.50;5.00;;;7.30;99.90;;;;;;4996241;28;20588;-67
2021/01/12 04:50:20;;;;;;;3.30;3.00;;;7.20;99.90;;;;;;4992773;28;20743;-67
2021/01/12 04:53:05;;;;;;;2.40;2.20;;;7.20;99.90;;;;;;5001554;28;20583;-67
2021/01/12 04:55:55;;;;;;;3.97;2.20;;;7.10;99.90;;;;;;4987416;28;20629;-68
2021/01/12 04:58:41;;;;;;;2.80;1.67;;;7.20;99.90;;;;;;4994244;28;21209;-67
2021/01/12 05:01:29;;;;;;;1.63;1.30;;;7.20;99.90;;;;;;4986647;28;20655;-67
2021/01/12 05:04:15;;;;;;;1.20;1.07;;;7.30;99.90;;;;;;4984812;28;21221;-68
2021/01/12 05:07:00;;;;;;;1.83;1.40;;;7.20;99.90;;;;;;4994909;28;20624;-68
2021/01/12 05:09:45;;;;;;;1.40;1.30;;;7.20;99.90;;;;;;4989448;28;20795;-67
2021/01/12 05:12:30;;;;;;;1.83;1.30;;;7.20;99.90;;;;;;4886317;28;20600;-68
2021/01/12 05:15:18;;;;;;;1.67;1.43;;;7.20;99.90;;;;;;4910904;28;20695;-68
2021/01/12 05:18:06;;;;;;;2.67;1.17;;;7.20;99.90;;;;;;4993232;28;20613;-67
2021/01/12 05:20:55;;;;;;;1.50;1.20;;;7.20;99.90;;;;;;4992567;28;20676;-67
2021/01/12 05:24:04;;;;;;;2.10;1.50;;;7.10;99.90;;;;;;4993477;28;20614;-67
2021/01/12 05:26:49;;;;;;;1.77;1.60;;;7.10;99.90;;;;;;4986530;28;20979;-68
2021/01/12 05:29:35;;;;;;;2.20;1.47;;;7.20;99.90;;;;;;4989002;28;20682;-68
2021/01/12 05:32:22;;;;;;;2.53;1.87;;;7.20;99.90;;;;;;4995425;28;20990;-67
2021/01/12 05:35:08;;;;;;;1.97;1.50;;;7.20;99.90;;;;;;4994776;28;20615;-67
2021/01/12 05:38:03;;;;;;;2.10;1.70;;;7.10;99.90;;;;;;4982131;28;20759;-68
2021/01/12 05:40:57;;;;;;;2.10;1.60;;;7.10;99.90;;;;;;4975630;28;20750;-68
2021/01/12 05:43:46;;;;;;;3.20;1.20;;;7.10;99.90;;;;;;4983461;28;20710;-67
2021/01/12 05:46:31;;;;;;;1.67;1.57;;;7.10;99.90;;;;;;4953298;28;20653;-68
2021/01/12 05:49:24;;;;;;;1.83;1.63;;;7.20;99.90;;;;;;4955996;28;20636;-67
2021/01/12 05:52:10;;;;;;;2.40;1.50;;;7.20;99.90;;;;;;4969390;28;20742;-67
2021/01/12 05:55:07;;;;;;;2.13;1.70;;;7.10;99.90;;;;;;4963572;28;20914;-68
2021/01/12 05:57:59;;;;;;;2.13;1.83;;;7.10;99.90;;;;;;4947790;28;20819;-68
2021/01/12 06:00:46;;;;;;;0.90;0.80;;;7.10;99.90;;;;;;4982255;28;21009;-68
2021/01/12 06:03:34;;;;;;;0.63;0.50;;;6.80;99.90;;;;;;4981121;28;20735;-67
2021/01/12 06:06:19;;;;;;;0.73;0.47;;;6.60;99.90;;;;;;4974752;28;20646;-66
2021/01/12 06:09:07;;;;;;;1.00;0.50;;;6.50;99.90;;;;;;4996427;28;20654;-66
2021/01/12 06:11:55;;;;;;;0.77;0.77;;;6.50;99.90;;;;;;4973357;28;20663;-66
2021/01/12 06:14:51;;;;;;;1.90;0.80;;;6.30;99.90;;;;;;4961829;28;20722;-66
2021/01/12 06:17:41;;;;;;;1.90;0.63;;;6.20;99.90;;;;;;4950697;28;20641;-66
2021/01/12 06:20:32;;;;;;;2.47;0.70;;;6.10;99.90;;;;;;4956739;28;20679;-65
2021/01/12 06:23:27;;;;;;;1.27;0.60;;;6.10;99.90;;;;;;4940864;28;21590;-66
2021/01/12 06:26:17;;;;;;;1.80;0.77;;;6.20;99.90;;;;;;4969959;28;20632;-67
2021/01/12 06:29:05;;;;;;;0.80;0.40;;;6.10;99.90;;;;;;4972100;28;20662;-65
2021/01/12 06:31:52;;;;;;;5.70;0.70;;;6.10;99.90;;;;;;4961085;28;20663;-66
2021/01/12 06:34:39;;;;;;;2.30;0.70;;;6.00;99.90;;;;;;4956634;28;22287;-66
2021/01/12 06:37:24;;;;;;;0.63;0.50;;;5.80;99.90;;;;;;4942626;28;21230;-66
2021/01/12 06:40:11;;;;;;;1.83;0.50;;;5.70;99.90;;;;;;4962823;28;21089;-65
2021/01/12 06:42:58;;;;;;;1.70;0.50;;;5.60;99.90;;;;;;4948899;28;20910;-65
2021/01/12 06:45:48;;;;;;;1.70;0.63;;;5.60;99.90;;;;;;4973450;28;20600;-66
2021/01/12 06:48:42;;;;;;;1.00;0.70;;;5.60;99.90;;;;;;4997243;28;21193;-66
2021/01/12 06:51:36;;;;;;;0.50;0.50;;;5.50;99.90;;;;;;4970796;23;21817;-72
2021/01/12 06:54:20;;;;;;;0.70;0.50;;;5.60;99.90;;;;;;4889385;28;20633;-71
2021/01/12 06:57:10;;;;;;;1.17;0.57;;;5.50;99.90;;;;;;4914907;28;21527;-72
2021/01/12 06:59:55;;;;;;;2.00;0.67;;;5.60;99.90;;;;;;4936315;28;20656;-71
2021/01/12 07:02:46;;;;;;;1.13;0.50;;;5.60;99.90;;;;;;4905157;28;20711;-71
2021/01/12 07:05:47;;;;;;;1.80;0.70;;;5.50;99.90;;;;;;4873734;28;21116;-71
2021/01/12 07:08:40;;;;;;;0.80;0.50;;;5.50;99.90;;;;;;4928884;28;20668;-71
2021/01/12 07:11:24;;;;;;;2.00;0.60;;;5.40;99.90;;;;;;4911718;28;20732;-72
2021/01/12 07:14:11;;;;;;;2.60;0.90;;;5.40;99.90;;;;;;4915221;28;20942;-72
2021/01/12 07:17:06;;;;;;;3.10;0.90;;;5.40;99.90;;;;;;4857964;28;21043;-72
2021/01/12 07:20:13;;;;;;;1.63;0.70;;;5.40;99.90;;;;;;4941566;28;21384;-71
2021/01/12 07:23:05;;;;;;;1.33;0.67;;;5.30;99.90;;;;;;4912535;28;20758;-72
2021/01/12 07:25:51;;;;;;;2.13;0.90;;;5.30;99.90;;;;;;4905989;28;20718;-71
2021/01/12 07:28:45;;;;;;;1.97;0.80;;;5.30;99.90;;;;;;4902748;28;20696;-72
2021/01/12 07:31:30;;;;;;;1.03;0.60;;;5.30;99.90;;;;;;4906537;28;20758;-72
2021/01/12 07:34:15;;;;;;;1.73;0.60;;;5.30;99.90;;;;;;4910831;28;20641;-71
2021/01/12 07:37:03;;;;;;;1.80;0.70;;;5.30;99.90;;;;;;4915670;28;20597;-71
2021/01/12 07:39:49;;;;;;;3.20;1.10;;;5.30;99.90;;;;;;4912498;28;20664;-72
2021/01/12 07:42:34;;;;;;;3.83;0.90;;;5.40;99.90;;;;;;4911923;28;21447;-71
2021/01/12 07:45:22;;;;;;;1.17;0.70;;;5.40;99.90;;;;;;4903098;28;21187;-72
2021/01/12 07:48:14;;;;;;;2.30;0.80;;;5.40;99.90;;;;;;4910196;28;21299;-72
2021/01/12 07:51:00;;;;;;;3.20;1.10;;;5.40;99.90;;;;;;4859983;28;20708;-71
2021/01/12 07:53:49;;;;;;;1.97;0.90;;;5.40;99.90;;;;;;4909668;28;20601;-72
2021/01/12 07:56:34;;;;;;;1.30;0.90;;;5.40;99.90;;;;;;4864970;28;20609;-72
2021/01/12 07:59:21;;;;;;;1.23;0.70;;;5.50;99.90;;;;;;4886972;28;20606;-72
2021/01/12 08:02:06;;;;;;;3.00;1.00;;;5.50;99.90;;;;;;4916202;28;20677;-72
2021/01/12 08:04:53;;;;;;;1.37;0.80;;;5.50;99.90;;;;;;4911186;28;21896;-72
2021/01/12 08:07:39;;;;;;;2.77;0.90;;;5.50;99.90;;;;;;4910676;28;20658;-71
2021/01/12 08:10:24;;;;;;;2.70;1.00;;;5.50;99.90;;;;;;4868696;28;20664;-72
2021/01/12 08:13:14;;;;;;;1.50;1.00;;;5.50;99.90;;;;;;4928840;28;20687;-71
2021/01/12 08:15:58;;;;;;;2.53;1.73;;;5.60;99.90;;;;;;4938476;28;20585;-71
2021/01/12 08:18:45;;;;;;;2.00;1.30;;;5.50;99.90;;;;;;4884205;28;21007;-71
2021/01/12 08:21:41;;;;;;;2.60;1.40;;;5.50;99.90;;;;;;4878600;28;20788;-71
2021/01/12 08:24:26;;;;;;;4.17;1.90;;;5.50;99.90;;;;;;4941094;28;20601;-71
2021/01/12 08:27:18;;;;;;;2.13;1.43;;;5.50;99.90;;;;;;4947398;28;20629;-71
2021/01/12 08:30:10;;;;;;;3.70;1.60;;;5.50;99.90;;;;;;4937078;28;20652;-71
2021/01/12 08:33:23;;;;;;;3.13;1.93;;;5.50;99.90;;;;;;4947892;28;21016;-71
2021/01/12 08:36:20;;;;;;;2.90;1.43;;;5.60;99.90;;;;;;4947331;28;20963;-71
2021/01/12 08:39:05;;;;;;;2.97;1.80;;;5.60;99.90;;;;;;4941106;28;20725;-71
2021/01/12 08:41:51;;;;;;;4.53;1.80;;;5.60;99.90;;;;;;4888788;28;20729;-72
2021/01/12 08:44:40;;;;;;;3.13;1.80;;;5.70;99.90;;;;;;4962323;28;20600;-71
2021/01/12 08:47:26;;;;;;;4.60;1.80;;;5.60;99.90;;;;;;4948742;28;20601;-71
2021/01/12 08:50:11;;;;;;;5.57;1.90;;;5.50;99.90;;;;;;4916645;28;20819;-71
2021/01/12 08:52:55;;;;;;;5.83;2.00;;;5.60;99.90;;;;;;4935778;28;20680;-71
2021/01/12 08:55:40;;;;;;;4.13;1.40;;;5.50;99.90;;;;;;4931016;28;20617;-71
2021/01/12 08:58:25;;;;;;;2.30;1.27;;;5.50;99.90;;;;;;4945557;28;21151;-71
2021/01/12 09:01:13;;;;;;;2.70;1.37;;;5.60;99.90;;;;;;4923553;28;20724;-71
2021/01/12 09:04:06;;;;;;;3.60;1.30;;;5.60;99.90;;;;;;4928299;28;20978;-71
2021/01/12 09:07:07;;;;;;;3.87;1.50;;;5.70;99.90;;;;;;4923420;28;20601;-71
2021/01/12 09:09:52;;;;;;;2.87;1.40;;;5.70;99.90;;;;;;4929541;28;20652;-70
2021/01/12 09:12:40;;;;;;;3.20;1.43;;;5.70;99.90;;;;;;4928215;28;20753;-70
2021/01/12 09:15:27;;;;;;;3.93;1.20;;;5.70;99.90;;;;;;4928711;28;21210;-70
2021/01/12 09:18:23;;;;;;;4.23;1.47;;;5.70;99.90;;;;;;4939084;28;20721;-70
2021/01/12 09:21:07;;;;;;;1.87;1.30;;;5.70;99.90;;;;;;4937350;28;20774;-70
2021/01/12 09:23:52;;;;;;;1.47;1.00;;;5.70;99.90;;;;;;4938003;28;20628;-70
2021/01/12 09:26:36;;;;;;;3.60;1.30;;;5.70;99.90;;;;;;4931894;28;20701;-71
2021/01/12 09:29:21;;;;;;;3.97;1.00;;;5.60;99.90;;;;;;4947952;28;21160;-71
2021/01/12 09:32:06;;;;;;;3.43;1.23;;;5.60;99.90;;;;;;4926786;28;20645;-72
2021/01/12 09:34:51;;;;;;;5.40;1.37;;;5.60;99.90;;;;;;4943716;28;20718;-71
2021/01/12 09:37:36;;;;;;;2.80;1.20;;;5.50;99.90;;;;;;4959770;28;20585;-71
2021/01/12 09:40:20;;;;;;;4.47;1.20;;;5.40;99.90;;;;;;4942697;28;21075;-72
2021/01/12 09:43:05;;;;;;;2.40;1.30;;;5.40;99.90;;;;;;4884566;28;20697;-71
2021/01/12 09:45:49;;;;;;;2.67;1.30;;;5.40;99.90;;;;;;4941813;28;20600;-71
2021/01/12 09:48:34;;;;;;;2.90;1.30;;;5.30;99.90;;;;;;4947989;28;20585;-72
2021/01/12 09:51:19;;;;;;;2.83;1.20;;;5.30;99.90;;;;;;4924848;28;21374;-71
2021/01/12 09:54:03;;;;;;;7.00;1.20;;;5.30;99.90;;;;;;4942199;28;20832;-71
2021/01/12 09:56:48;;;;;;;1.40;1.17;;;5.30;99.90;;;;;;4881635;28;20593;-72
2021/01/12 09:59:32;;;;;;;3.27;1.30;;;5.40;99.90;;;;;;4924122;28;21650;-71
2021/01/12 10:02:17;;;;;;;2.80;1.10;;;5.40;99.90;;;;;;4933530;28;21603;-72
2021/01/12 10:05:01;;;;;;;2.43;1.03;;;5.30;99.90;;;;;;4939372;28;20644;-71
2021/01/12 10:07:46;;;;;;;7.00;1.23;;;5.30;99.90;;;;;;4949751;28;20671;-71
2021/01/12 10:10:31;;;;;;;2.73;0.93;;;5.30;99.90;;;;;;4931640;28;20786;-71
2021/01/12 10:13:15;;;;;;;5.20;2.10;;;5.30;99.90;;;;;;4938660;28;20605;-71
2021/01/12 10:16:00;;;;;;;3.30;1.10;;;5.30;99.90;;;;;;4938747;28;20617;-71
2021/01/12 10:18:44;;;;;;;4.60;1.43;;;5.30;99.90;;;;;;4932388;28;20592;-71
2021/01/12 10:21:29;;;;;;;5.03;1.37;;;5.30;99.90;;;;;;4928319;28;20687;-71
2021/01/12 10:24:14;;;;;;;2.10;1.17;;;5.30;99.90;;;;;;4935496;28;20737;-72
2021/01/12 10:26:58;;;;;;;3.40;1.50;;;5.30;99.90;;;;;;4955485;28;21287;-71
2021/01/12 10:29:43;;;;;;;1.67;1.23;;;5.30;99.90;;;;;;4937970;28;24262;-71
2021/01/12 10:32:28;;;;;;;2.30;1.27;;;5.40;99.90;;;;;;4938451;28;21242;-71
2021/01/12 10:35:13;;;;;;;6.50;1.40;;;5.40;99.90;;;;;;4878924;28;20681;-71
2021/01/12 10:37:57;;;;;;;3.60;1.30;;;5.50;99.90;;;;;;4938066;28;20731;-71
2021/01/12 10:40:42;;;;;;;3.40;1.23;;;5.60;99.90;;;;;;4949238;28;21096;-71
2021/01/12 10:43:26;;;;;;;3.50;1.20;;;5.60;99.90;;;;;;4883339;28;20600;-71
2021/01/12 10:46:15;;;;;;;1.10;0.90;;;5.60;99.90;;;;;;4925810;28;20799;-71
2021/01/12 10:48:59;;;;;;;5.47;1.30;;;5.60;99.90;;;;;;4881706;28;20661;-71
2021/01/12 10:51:44;;;;;;;2.77;1.10;;;5.70;99.90;;;;;;4933788;28;20660;-71
2021/01/12 10:54:29;;;;;;;3.83;1.13;;;5.70;99.90;;;;;;4943877;28;20589;-71
2021/01/12 10:57:14;;;;;;;7.50;1.20;;;5.80;99.90;;;;;;4936271;28;20673;-71
2021/01/12 11:00:01;;;;;;;5.33;1.10;;;5.80;99.90;;;;;;4931747;28;21254;-72
2021/01/12 11:02:46;;;;;;;4.60;1.30;;;5.80;99.90;;;;;;4883257;28;20641;-72
2021/01/12 11:05:33;;;;;;;3.30;1.40;;;5.80;99.90;;;;;;4932280;28;20630;-72
2021/01/12 11:08:18;;;;;;;3.93;1.20;;;5.90;99.90;;;;;;4916528;28;20609;-69
2021/01/12 11:11:03;;;;;;;4.63;1.20;;;6.10;99.90;;;;;;4929529;28;21026;-70
2021/01/12 11:13:48;;;;;;;2.80;1.27;;;6.20;99.90;;;;;;4931295;28;20787;-70
2021/01/12 11:16:40;;;;;;;5.90;1.70;;;6.20;99.90;;;;;;4936219;28;20733;-70
2021/01/12 11:19:25;;;;;;;4.27;1.30;;;6.20;99.90;;;;;;4931524;28;20618;-71
2021/01/12 11:22:09;;;;;;;2.60;1.40;;;6.30;99.90;;;;;;4934798;28;20664;-71
2021/01/12 11:25:00;;;;;;;2.83;1.20;;;6.40;99.90;;;;;;4931380;28;20745;-70
2021/01/12 11:27:47;;;;;;;2.23;1.07;;;6.30;99.90;;;;;;4881928;28;20601;-70
2021/01/12 11:30:32;;;;;;;5.03;1.50;;;6.40;99.90;;;;;;4875654;28;20661;-72
2021/01/12 11:33:17;;;;;;;5.20;1.40;;;6.40;99.90;;;;;;4947376;28;20644;-70
2021/01/12 11:36:03;;;;;;;3.50;1.40;;;6.50;99.90;;;;;;4925414;28;20625;-72
2021/01/12 11:38:47;;;;;;;3.40;1.70;;;6.50;99.90;;;;;;4933877;28;20593;-71
2021/01/12 11:41:32;;;;;;;3.67;1.40;;;6.50;99.90;;;;;;4876673;28;21054;-70
2021/01/12 11:44:21;;;;;;;2.70;1.50;;;6.40;99.90;;;;;;4924521;28;20613;-70
2021/01/12 11:47:06;;;;;;;2.63;0.90;;;6.40;99.90;;;;;;4945169;28;20777;-70
2021/01/12 11:49:51;;;;;;;5.67;1.40;;;6.50;99.90;;;;;;4923709;28;20715;-70
2021/01/12 11:52:38;;;;;;;5.40;1.73;;;6.60;99.90;;;;;;4934636;28;21044;-71
2021/01/12 11:55:23;;;;;;;3.07;1.60;;;6.70;99.90;;;;;;4945437;28;20616;-71
2021/01/12 11:58:07;;;;;;;5.50;1.23;;;6.60;99.90;;;;;;4928147;28;21136;-70
2021/01/12 12:00:52;;;;;;;2.30;1.20;;;6.60;99.90;;;;;;4931805;28;20708;-70
2021/01/12 12:03:36;;;;;;;3.30;1.10;;;6.50;99.90;;;;;;4913670;28;20749;-71
2021/01/12 12:06:21;;;;;;;4.07;1.30;;;6.50;99.90;;;;;;4942206;28;20636;-71
2021/01/12 12:09:07;;;;;;;3.17;1.07;;;6.50;99.90;;;;;;4929377;28;21199;-70
2021/01/12 12:11:52;;;;;;;1.93;1.10;;;6.50;99.90;;;;;;4947850;28;20654;-70
2021/01/12 12:14:37;;;;;;;1.60;0.77;;;6.50;99.90;;;;;;4937815;28;20653;-71
2021/01/12 12:17:22;;;;;;;2.67;0.83;;;6.60;99.90;;;;;;4940730;28;20596;-70
2021/01/12 12:20:07;;;;;;;3.23;0.90;;;6.60;99.90;;;;;;4878448;28;21010;-70
2021/01/12 12:22:51;;;;;;;2.93;1.30;;;6.70;99.90;;;;;;4943343;28;21199;-70
2021/01/12 12:25:36;;;;;;;1.27;0.90;;;6.80;99.90;;;;;;4936522;28;20965;-69
2021/01/12 12:28:20;;;;;;;3.53;0.97;;;6.80;99.90;;;;;;4925347;28;20632;-70
2021/01/12 12:31:05;;;;;;;2.80;0.90;;;6.90;99.90;;;;;;4931702;28;20716;-71
2021/01/12 12:33:50;;;;;;;2.00;0.80;;;6.90;99.90;;;;;;4941097;28;20597;-70
2021/01/12 12:36:35;;;;;;;3.73;1.30;;;7.00;99.90;;;;;;4873831;28;20645;-69
2021/01/12 12:39:23;;;;;;;2.60;1.03;;;7.10;99.90;;;;;;4946826;28;20617;-70
2021/01/12 12:42:08;;;;;;;3.10;1.13;;;7.20;99.90;;;;;;4964134;28;20733;-70
2021/01/12 12:44:55;;;;;;;1.73;0.80;;;7.20;99.90;;;;;;4931142;28;21068;-70
2021/01/12 12:47:41;;;;;;;1.73;1.20;;;7.20;99.90;;;;;;4945725;28;20624;-70
2021/01/12 12:50:26;;;;;;;3.23;1.00;;;7.30;99.90;;;;;;4931949;28;21110;-70
2021/01/12 12:53:11;;;;;;;3.93;1.20;;;7.50;99.90;;;;;;4970558;23;20709;-67
2021/01/12 12:55:56;;;;;;;2.40;0.90;;;7.60;99.90;;;;;;4956935;28;20609;-66
2021/01/12 12:58:42;;;;;;;5.00;1.73;;;7.50;99.90;;;;;;4960207;28;20638;-67
2021/01/12 13:01:27;;;;;;;2.33;0.80;;;7.70;99.90;;;;;;4963906;28;20638;-68
2021/01/12 13:04:12;;;;;;;2.20;0.97;;;7.70;99.90;;;;;;4963908;28;20605;-67
2021/01/12 13:06:57;;;;;;;5.20;1.07;;;7.80;99.90;;;;;;4982382;28;20717;-68
2021/01/12 13:09:42;;;;;;;4.93;2.03;;;7.70;99.90;;;;;;4963323;28;20667;-68
2021/01/12 13:12:29;;;;;;;3.37;1.20;;;7.60;99.90;;;;;;4954325;28;20776;-68
2021/01/12 13:15:14;;;;;;;2.20;1.10;;;7.60;99.90;;;;;;4976456;28;20628;-67
2021/01/12 13:17:59;;;;;;;6.20;1.20;;;7.50;99.90;;;;;;4985665;28;20661;-66
2021/01/12 13:20:44;;;;;;;3.87;1.10;;;7.40;99.90;;;;;;4971310;28;20667;-65
2021/01/12 13:23:28;;;;;;;4.47;1.47;;;7.30;99.90;;;;;;4966895;28;21016;-67
2021/01/12 13:26:13;;;;;;;3.20;2.03;;;7.20;99.90;;;;;;4977084;28;20605;-66
2021/01/12 13:28:57;;;;;;;2.33;0.83;;;7.10;99.90;;;;;;4963871;28;20637;-66
2021/01/12 13:31:43;;;;;;;3.37;1.10;;;6.90;99.90;;;;;;4985701;28;20743;-66
2021/01/12 13:34:27;;;;;;;1.03;0.70;;;6.80;99.90;;;;;;4964471;28;20613;-66
2021/01/12 13:37:11;;;;;;;1.57;0.90;;;6.60;99.90;;;;;;4974708;28;20600;-66
2021/01/12 13:39:58;;;;;;;2.03;0.90;;;6.60;99.90;;;;;;4977216;28;20640;-67
2021/01/12 13:42:50;;;;;;;1.90;0.90;;;6.60;99.90;;;;;;4977029;28;20651;-66
2021/01/12 13:45:34;;;;;;;2.77;0.80;;;6.60;99.90;;;;;;4978923;28;20876;-66
2021/01/12 13:48:19;;;;;;;2.43;1.03;;;6.70;99.90;;;;;;4981130;28;20851;-66
2021/01/12 13:51:08;;;;;;;4.13;0.93;;;6.60;99.90;;;;;;4981997;28;20660;-65
2021/01/12 13:53:56;;;;;;;2.43;1.00;;;6.40;99.90;;;;;;4981759;28;20602;-66
2021/01/12 13:56:42;;;;;;;4.03;1.13;;;6.10;99.90;;;;;;4975144;28;20633;-65
2021/01/12 13:59:31;;;;;;;2.00;0.90;;;5.90;99.90;;;;;;4967781;28;20957;-66
2021/01/12 14:02:17;;;;;;;3.07;0.90;;;5.70;99.90;;;;;;4959387;28;20688;-67
2021/01/12 14:05:04;;;;;;;1.17;0.80;;;5.80;99.90;;;;;;4979664;28;20698;-66
2021/01/12 14:07:49;;;;;;;3.53;1.00;;;5.60;99.90;;;;;;4967479;28;20707;-66
2021/01/12 14:10:34;;;;;;;1.97;0.90;;;5.50;99.90;;;;;;4971063;28;20660;-66
2021/01/12 14:13:21;;;;;;;2.80;1.27;;;5.60;99.90;;;;;;4966105;28;20769;-66
2021/01/12 14:16:08;;;;;;;1.90;1.23;;;5.70;99.90;;;;;;4968447;28;20599;-67
2021/01/12 14:18:53;;;;;;;4.13;1.20;;;5.80;99.90;;;;;;4990010;28;20949;-66
2021/01/12 14:21:45;;;;;;;1.57;0.90;;;5.80;99.90;;;;;;4977139;28;20664;-67
2021/01/12 14:24:30;;;;;;;3.27;0.90;;;5.70;99.90;;;;;;4957225;28;20679;-66
2021/01/12 14:27:19;;;;;;;1.63;0.90;;;5.80;99.90;;;;;;4981756;28;20623;-67
2021/01/12 14:30:08;;;;;;;0.97;0.87;;;5.70;99.90;;;;;;4971300;28;21061;-66
2021/01/12 14:32:53;;;;;;;1.80;0.93;;;5.70;99.90;;;;;;4970159;28;21120;-67
2021/01/12 14:35:40;;;;;;;2.97;1.27;;;5.70;99.90;;;;;;4985086;28;20601;-66